Terminal Aerodrome Forecast
Issued by NWS Charleston, WV

Current Version | Previous Version | Text Only | Print | Product List | Glossary Off
Versions: 1 2 3 4 5 6 7 8 9 10 11 12 13 14 15 16 17 18 19 20 21 22

000
FTUS41 KRLX 231700 RRA
TAFEKN
TAF
KEKN 231751Z 2318/2418 15005KT P6SM BKN050
     FM240500 VRB03KT 5SM SHRA BR OVC030
     FM240800 14005KT 3SM SHRA BR OVC022
     FM241400 14004KT 5SM SHRA BR OVC025
     FM241600 14007KT P6SM OVC035=

USA.gov is the U.S. government's official web portal to all federal, state and local government web resources and services.